Time;durP1;ratioP1;P1;durP2;ratioP2;P2;SDS_P1;SDS_P2;PMS_P1;PMS_P2;Temp;Humidity;BMP_temperature;BMP_pressure;BME280_temperature;BME280_humidity;BME280_pressure;Samples;Min_cycle;Max_cycle;Signal;HPM_P1;HPM_P2
2023/04/06 00:00:44;;;;;;;19.75;11.27;;;20.30;99.90;;;;;;4590079;19;20019;-30
2023/04/06 00:02:23;;;;;;;17.73;10.98;;;20.30;99.90;;;;;;4589074;19;20033;-29
2023/04/06 00:03:54;;;;;;;16.63;10.07;;;20.30;99.90;;;;;;4589958;19;20006;-29
2023/04/06 00:05:27;;;;;;;17.42;10.85;;;20.30;99.90;;;;;;4589084;19;20086;-29
2023/04/06 00:06:59;;;;;;;16.52;10.32;;;20.30;99.90;;;;;;4589596;19;20018;-30
2023/04/06 00:08:30;;;;;;;15.63;10.75;;;20.30;99.90;;;;;;4589736;19;20343;-29
2023/04/06 00:10:02;;;;;;;17.05;10.35;;;20.30;99.90;;;;;;4589993;19;20018;-29
2023/04/06 00:11:34;;;;;;;16.27;10.38;;;20.30;99.90;;;;;;4590316;19;20018;-29
2023/04/06 00:13:05;;;;;;;17.80;11.00;;;20.20;99.90;;;;;;4590001;19;20010;-29
2023/04/06 00:14:40;;;;;;;15.38;9.65;;;20.30;99.90;;;;;;4588588;19;20011;-29
2023/04/06 00:16:12;;;;;;;15.65;9.82;;;20.30;99.90;;;;;;4589643;19;20014;-30
2023/04/06 00:17:45;;;;;;;14.43;10.10;;;20.30;99.90;;;;;;4590028;19;20018;-29
2023/04/06 00:19:17;;;;;;;17.90;10.05;;;20.30;99.90;;;;;;4588592;19;20022;-30
2023/04/06 00:20:48;;;;;;;14.43;9.73;;;20.20;99.90;;;;;;4589143;19;20018;-29
2023/04/06 00:22:21;;;;;;;15.02;9.60;;;20.30;99.90;;;;;;4589437;19;20014;-29
2023/04/06 00:23:52;;;;;;;18.08;10.25;;;20.30;99.90;;;;;;4588584;19;20006;-29
2023/04/06 00:25:23;;;;;;;15.10;9.90;;;20.30;99.90;;;;;;4589606;19;20013;-30
2023/04/06 00:26:55;;;;;;;14.57;9.85;;;20.30;99.90;;;;;;4589646;19;20010;-30
2023/04/06 00:28:26;;;;;;;14.27;9.70;;;20.30;99.90;;;;;;4589574;19;20022;-30
2023/04/06 00:29:57;;;;;;;;;;;20.30;99.90;;;;;;4589800;19;20013;-29
2023/04/06 00:31:29;;;;;;;16.98;10.60;;;20.30;99.90;;;;;;4589397;19;20261;-30
2023/04/06 00:33:02;;;;;;;17.08;10.13;;;20.30;99.90;;;;;;4588495;19;20076;-29
2023/04/06 00:34:33;;;;;;;16.90;10.27;;;20.30;99.90;;;;;;4588979;19;20022;-29
2023/04/06 00:36:05;;;;;;;15.55;10.23;;;20.30;99.90;;;;;;4589822;19;20007;-29
2023/04/06 00:37:55;;;;;;;14.23;9.05;;;20.30;99.90;;;;;;4589360;19;20039;-29
2023/04/06 00:39:26;;;;;;;13.85;9.18;;;20.20;99.90;;;;;;4588407;19;20496;-29
2023/04/06 00:40:59;;;;;;;13.65;9.40;;;20.30;99.90;;;;;;4589269;19;20014;-30
2023/04/06 00:42:31;;;;;;;16.33;9.82;;;20.30;99.90;;;;;;4588020;19;20002;-30
2023/04/06 00:44:02;;;;;;;15.65;10.00;;;20.30;99.90;;;;;;4589224;19;20349;-30
2023/04/06 00:45:35;;;;;;;18.45;10.88;;;20.30;99.90;;;;;;4589443;19;20065;-30
2023/04/06 00:47:07;;;;;;;16.38;10.20;;;20.30;99.90;;;;;;4588838;19;20010;-29
2023/04/06 00:48:40;;;;;;;;;;;20.20;99.90;;;;;;4588236;19;20030;-29
2023/04/06 00:50:11;;;;;;;13.90;9.45;;;20.20;99.90;;;;;;4588969;19;19919;-29
2023/04/06 00:51:43;;;;;;;18.15;10.00;;;20.20;99.90;;;;;;4587778;19;20413;-29
2023/04/06 00:53:14;;;;;;;;;;;20.20;99.90;;;;;;4589915;19;20006;-29
2023/04/06 00:54:47;;;;;;;15.18;9.65;;;20.20;99.90;;;;;;4589726;19;19925;-30
2023/04/06 00:56:18;;;;;;;14.95;9.52;;;20.20;99.90;;;;;;4588962;19;20488;-29
2023/04/06 00:57:50;;;;;;;;;;;20.30;99.90;;;;;;4590328;19;20051;-29
2023/04/06 00:59:21;;;;;;;16.08;9.63;;;20.20;99.90;;;;;;4588043;19;19944;-29
2023/04/06 01:00:55;;;;;;;14.77;9.02;;;20.20;99.90;;;;;;4589876;19;19999;-29
2023/04/06 01:02:26;;;;;;;13.85;8.80;;;20.30;99.90;;;;;;4591698;19;20014;-29
2023/04/06 01:03:59;;;;;;;14.88;9.20;;;20.30;99.90;;;;;;4593287;19;20013;-29
2023/04/06 01:05:31;;;;;;;13.00;8.80;;;20.30;99.90;;;;;;4593795;19;20011;-29
2023/04/06 01:07:02;;;;;;;13.10;8.43;;;20.20;99.90;;;;;;4592384;19;20356;-29
2023/04/06 01:08:33;;;;;;;14.05;9.10;;;20.30;99.90;;;;;;4593127;19;20027;-29
2023/04/06 01:10:05;;;;;;;13.75;8.70;;;20.30;99.90;;;;;;4593207;19;20014;-30
2023/04/06 01:11:37;;;;;;;14.43;9.50;;;20.30;99.90;;;;;;4592427;19;20046;-29
2023/04/06 01:13:09;;;;;;;13.25;8.57;;;20.30;99.90;;;;;;4593120;19;20017;-29
2023/04/06 01:14:40;;;;;;;13.40;8.60;;;20.30;99.90;;;;;;4593536;19;20010;-30
2023/04/06 01:16:11;;;;;;;;;;;20.30;99.90;;;;;;4594480;19;20026;-30
2023/04/06 01:17:44;;;;;;;13.50;8.35;;;20.30;99.90;;;;;;4592342;19;19911;-30
2023/04/06 01:19:17;;;;;;;14.30;8.93;;;20.30;99.90;;;;;;4592810;19;20005;-30
2023/04/06 01:20:50;;;;;;;14.10;8.40;;;20.40;99.90;;;;;;4592222;19;20014;-30
2023/04/06 01:22:21;;;;;;;11.48;7.35;;;20.40;99.90;;;;;;4591062;19;20018;-30
2023/04/06 01:23:52;;;;;;;13.13;8.95;;;20.40;99.90;;;;;;4593194;19;20034;-30
2023/04/06 01:25:25;;;;;;;12.63;8.73;;;20.30;99.90;;;;;;4591577;19;20042;-29
2023/04/06 01:27:00;;;;;;;10.65;8.02;;;20.40;99.90;;;;;;4592584;19;20017;-29
2023/04/06 01:28:32;;;;;;;12.15;7.57;;;20.30;99.90;;;;;;4592172;19;20035;-29
2023/04/06 01:30:04;;;;;;;15.55;9.05;;;20.40;99.90;;;;;;4592357;19;20011;-29
2023/04/06 01:31:37;;;;;;;12.07;8.13;;;20.40;99.90;;;;;;4591315;19;20011;-29
2023/04/06 01:33:08;;;;;;;13.48;8.25;;;20.40;99.90;;;;;;4592320;19;20010;-29
2023/04/06 01:34:40;;;;;;;13.13;8.43;;;20.40;99.90;;;;;;4593557;19;20011;-29
2023/04/06 01:36:14;;;;;;;12.30;8.07;;;20.40;99.90;;;;;;4593230;19;20468;-29
2023/04/06 01:37:45;;;;;;;12.50;7.50;;;20.40;99.90;;;;;;4591693;19;20500;-29
2023/04/06 01:39:16;;;;;;;;;;;20.40;99.90;;;;;;4593795;19;20043;-29
2023/04/06 01:40:47;;;;;;;11.65;7.07;;;20.40;99.90;;;;;;4593203;19;19911;-29
2023/04/06 01:42:19;;;;;;;10.63;7.35;;;20.40;99.90;;;;;;4592976;19;20018;-29
2023/04/06 01:43:54;;;;;;;12.63;7.50;;;20.40;99.90;;;;;;4591487;19;20010;-29
2023/04/06 01:45:25;;;;;;;11.82;7.50;;;20.40;99.90;;;;;;4591665;19;20010;-29
2023/04/06 01:46:58;;;;;;;10.60;7.55;;;20.40;99.90;;;;;;4592564;19;20002;-29
2023/04/06 01:48:31;;;;;;;11.38;7.80;;;20.40;99.90;;;;;;4591158;19;20010;-29
2023/04/06 01:50:17;;;;;;;13.35;7.95;;;20.40;99.90;;;;;;4592474;19;20017;-29
2023/04/06 01:51:50;;;;;;;11.23;7.03;;;20.40;99.90;;;;;;4592225;19;20066;-29
2023/04/06 01:53:21;;;;;;;;;;;20.40;99.90;;;;;;4592789;19;20108;-30
2023/04/06 01:54:52;;;;;;;10.20;7.22;;;20.40;99.90;;;;;;4592431;19;19954;-30
2023/04/06 01:56:25;;;;;;;12.50;7.38;;;20.40;99.90;;;;;;4591186;19;20010;-29
2023/04/06 01:57:57;;;;;;;11.20;6.97;;;20.40;99.90;;;;;;4591922;19;20014;-29
2023/04/06 01:59:31;;;;;;;9.98;6.78;;;20.40;99.90;;;;;;4592869;19;20019;-30
2023/04/06 02:01:02;;;;;;;10.70;7.70;;;20.40;99.90;;;;;;4592552;19;20058;-29
2023/04/06 02:02:35;;;;;;;11.30;6.90;;;20.40;99.90;;;;;;4590856;19;20052;-29
2023/04/06 02:04:08;;;;;;;11.05;6.78;;;20.40;99.90;;;;;;4592120;19;20030;-30
2023/04/06 02:05:39;;;;;;;10.27;6.97;;;20.40;99.90;;;;;;4592695;19;20010;-29
2023/04/06 02:07:11;;;;;;;10.10;6.88;;;20.40;99.90;;;;;;4590845;19;20483;-29
2023/04/06 02:08:44;;;;;;;10.07;6.20;;;20.40;99.90;;;;;;4591875;19;20007;-29
2023/04/06 02:10:19;;;;;;;9.63;5.97;;;20.40;99.90;;;;;;4592718;19;20070;-29
2023/04/06 02:11:53;;;;;;;10.77;7.25;;;20.40;99.90;;;;;;4591988;19;20032;-29
2023/04/06 02:13:24;;;;;;;9.85;6.20;;;20.40;99.90;;;;;;4591979;19;20007;-29
2023/04/06 02:14:56;;;;;;;11.55;7.18;;;20.40;99.90;;;;;;4590858;19;20078;-29
2023/04/06 02:16:28;;;;;;;10.63;7.53;;;20.40;99.90;;;;;;4591817;19;20021;-30
2023/04/06 02:18:00;;;;;;;9.35;6.43;;;20.40;99.90;;;;;;4591767;19;20472;-30
2023/04/06 02:19:32;;;;;;;;;;;20.40;99.90;;;;;;4590240;19;20074;-29
2023/04/06 02:21:03;;;;;;;12.27;7.18;;;20.40;99.90;;;;;;4591513;19;19926;-30
2023/04/06 02:22:36;;;;;;;14.70;7.00;;;20.40;99.90;;;;;;4590926;19;20018;-29
2023/04/06 02:24:08;;;;;;;9.35;5.93;;;20.40;99.90;;;;;;4590649;19;20464;-30
2023/04/06 02:25:43;;;;;;;9.40;5.80;;;20.40;99.90;;;;;;4591614;19;20081;-29
2023/04/06 02:27:14;;;;;;;10.52;6.90;;;20.40;99.90;;;;;;4590680;19;20434;-29
2023/04/06 02:28:47;;;;;;;8.82;5.78;;;20.40;99.90;;;;;;4591592;19;20070;-29
2023/04/06 02:30:18;;;;;;;9.18;5.90;;;20.40;99.90;;;;;;4592237;19;20019;-29
2023/04/06 02:31:49;;;;;;;9.32;6.05;;;20.50;99.90;;;;;;4591847;19;20020;-29
2023/04/06 02:33:22;;;;;;;10.05;6.28;;;20.50;99.90;;;;;;4591334;19;20015;-30
2023/04/06 02:34:55;;;;;;;10.57;6.35;;;20.50;99.90;;;;;;4591127;19;20498;-29
2023/04/06 02:36:26;;;;;;;8.70;5.78;;;20.50;99.90;;;;;;4591350;19;19994;-29
2023/04/06 02:37:57;;;;;;;9.05;5.68;;;20.50;99.90;;;;;;4591544;19;20044;-29
2023/04/06 02:39:28;;;;;;;10.45;7.18;;;20.50;99.90;;;;;;4592144;19;20014;-29
2023/04/06 02:41:00;;;;;;;9.40;5.88;;;20.50;99.90;;;;;;4590987;19;20011;-30
2023/04/06 02:42:31;;;;;;;10.68;5.72;;;20.50;99.90;;;;;;4590692;19;20034;-29
2023/04/06 02:44:02;;;;;;;9.40;6.65;;;20.50;99.90;;;;;;4591635;19;20011;-30
2023/04/06 02:45:34;;;;;;;11.20;7.05;;;20.50;99.90;;;;;;4590494;19;20022;-29
2023/04/06 02:47:05;;;;;;;10.27;6.50;;;20.50;99.90;;;;;;4591595;19;20066;-29
2023/04/06 02:48:38;;;;;;;10.40;6.70;;;20.50;99.90;;;;;;4589216;19;20030;-29
2023/04/06 02:50:09;;;;;;;10.43;7.07;;;20.50;99.90;;;;;;4590784;19;20010;-29
2023/04/06 02:51:42;;;;;;;9.98;7.13;;;20.50;99.90;;;;;;4591001;19;20014;-29
2023/04/06 02:53:14;;;;;;;9.77;6.68;;;20.40;99.90;;;;;;4590913;19;20002;-29
2023/04/06 02:54:45;;;;;;;10.98;7.28;;;20.40;99.90;;;;;;4590780;19;20070;-29
2023/04/06 03:44:56;;;;;;;28.73;18.52;;;20.40;99.90;;;;;;4589592;19;20499;-30
2023/04/06 03:46:28;;;;;;;42.55;25.80;;;19.60;91.50;;;;;;4590550;19;20014;-29
2023/04/06 03:47:59;;;;;;;42.05;25.15;;;18.20;87.30;;;;;;4589622;19;20022;-29
2023/04/06 03:49:31;;;;;;;54.70;31.10;;;16.90;87.10;;;;;;4590520;19;20014;-29
2023/04/06 03:51:04;;;;;;;71.93;38.27;;;15.90;87.50;;;;;;4588897;19;20018;-30
2023/04/06 03:52:36;;;;;;;69.82;38.42;;;15.20;88.70;;;;;;4590083;19;20398;-29
2023/04/06 03:54:07;;;;;;;;;;;14.70;89.70;;;;;;4589944;19;20003;-30
2023/04/06 03:55:39;;;;;;;63.43;33.70;;;14.30;90.30;;;;;;4589666;19;19918;-29
2023/04/06 03:57:10;;;;;;;40.15;23.73;;;14.00;90.10;;;;;;4589919;19;20006;-29
2023/04/06 03:58:41;;;;;;;45.95;26.23;;;13.80;90.20;;;;;;4590393;19;20524;-30
2023/04/06 04:00:13;;;;;;;52.47;30.85;;;13.60;90.40;;;;;;4588926;19;20468;-30
2023/04/06 04:01:45;;;;;;;62.90;34.57;;;13.50;90.60;;;;;;4588729;19;20006;-30
2023/04/06 04:03:17;;;;;;;63.97;37.17;;;13.40;90.70;;;;;;4588719;19;20505;-30
2023/04/06 04:04:48;;;;;;;66.57;38.33;;;13.30;90.70;;;;;;4590064;19;20048;-30
2023/04/06 04:06:19;;;;;;;58.20;33.25;;;13.20;90.90;;;;;;4590848;19;20066;-30
2023/04/06 04:07:52;;;;;;;68.53;36.83;;;13.30;91.10;;;;;;4589664;19;20022;-30
2023/04/06 04:09:24;;;;;;;73.47;38.97;;;13.30;90.90;;;;;;4589807;19;20436;-29
2023/04/06 04:10:55;;;;;;;54.35;30.17;;;13.30;90.80;;;;;;4589000;19;20433;-29
2023/04/06 04:12:28;;;;;;;52.27;30.97;;;13.20;90.90;;;;;;4589363;19;20002;-29
2023/04/06 04:14:01;;;;;;;47.60;27.40;;;13.10;90.90;;;;;;4589430;19;20564;-30
2023/04/06 04:15:32;;;;;;;38.15;22.98;;;13.30;91.30;;;;;;4589846;19;20437;-30
2023/04/06 04:17:03;;;;;;;40.50;23.67;;;13.40;90.90;;;;;;4588995;19;20009;-30
2023/04/06 04:18:36;;;;;;;41.37;24.23;;;13.30;90.80;;;;;;4589472;19;20015;-30
2023/04/06 04:20:07;;;;;;;;;;;13.20;90.70;;;;;;4590546;19;20449;-30
2023/04/06 04:21:45;;;;;;;42.77;25.20;;;13.20;91.20;;;;;;4589773;19;19911;-29
2023/04/06 04:23:17;;;;;;;40.03;24.80;;;13.10;90.90;;;;;;4588525;19;20477;-30
2023/04/06 04:24:50;;;;;;;39.92;24.60;;;13.10;90.80;;;;;;4589663;19;20468;-30
2023/04/06 04:26:23;;;;;;;32.67;21.87;;;13.10;90.80;;;;;;4588410;19;20015;-29
2023/04/06 04:27:56;;;;;;;30.93;21.27;;;13.10;90.80;;;;;;4589918;19;20487;-29
2023/04/06 04:29:27;;;;;;;34.15;23.08;;;13.00;90.80;;;;;;4588935;19;20469;-30
2023/04/06 04:30:59;;;;;;;47.35;31.00;;;12.80;91.00;;;;;;4588554;19;20015;-29
2023/04/06 04:32:31;;;;;;;36.60;26.63;;;12.80;91.00;;;;;;4589065;19;20014;-30
2023/04/06 04:34:03;;;;;;;32.17;21.30;;;12.70;91.10;;;;;;4588267;19;20477;-30
2023/04/06 04:35:35;;;;;;;30.53;20.23;;;12.60;91.30;;;;;;4592775;19;20017;-30
2023/04/06 04:37:07;;;;;;;35.17;20.27;;;12.60;91.40;;;;;;4592663;19;20776;-30
2023/04/06 04:38:40;;;;;;;27.40;18.80;;;12.50;91.50;;;;;;4592268;19;20018;-30
2023/04/06 04:40:11;;;;;;;30.63;20.65;;;12.50;91.40;;;;;;4593811;19;20462;-30
2023/04/06 04:41:44;;;;;;;30.23;20.87;;;12.40;91.50;;;;;;4592865;19;20037;-30
2023/04/06 04:43:15;;;;;;;32.65;21.05;;;12.40;91.60;;;;;;4591653;19;20514;-30
2023/04/06 04:44:47;;;;;;;33.60;21.13;;;12.40;91.80;;;;;;4591215;19;20070;-30
2023/04/06 04:46:18;;;;;;;34.83;22.77;;;12.40;91.80;;;;;;4592164;19;20022;-30
2023/04/06 04:47:49;;;;;;;31.75;22.02;;;12.40;91.80;;;;;;4593209;19;20025;-29
2023/04/06 04:49:21;;;;;;;32.60;23.83;;;12.40;91.80;;;;;;4593783;19;20030;-29
2023/04/06 04:50:55;;;;;;;;;;;12.40;91.80;;;;;;4594339;19;20507;-29
2023/04/06 04:52:26;;;;;;;39.17;23.27;;;12.40;92.00;;;;;;4594061;19;19926;-30
2023/04/06 04:53:57;;;;;;;36.03;22.08;;;12.30;92.00;;;;;;4593655;19;20990;-30
2023/04/06 04:55:29;;;;;;;36.77;23.00;;;12.30;91.90;;;;;;4593945;19;20349;-30
2023/04/06 04:57:04;;;;;;;36.93;22.43;;;12.40;91.80;;;;;;4594529;19;20441;-30
2023/04/06 04:58:35;;;;;;;33.92;22.05;;;12.30;91.80;;;;;;4593538;19;20467;-30
2023/04/06 05:00:07;;;;;;;33.25;22.80;;;12.40;91.80;;;;;;4593541;19;20050;-30
2023/04/06 05:01:39;;;;;;;39.13;23.13;;;12.40;91.70;;;;;;4592200;19;20030;-30
2023/04/06 05:03:14;;;;;;;39.03;23.23;;;12.40;91.70;;;;;;4592243;19;20457;-30
2023/04/06 05:04:45;;;;;;;35.00;23.40;;;12.40;91.90;;;;;;4592387;19;20021;-29
2023/04/06 05:06:17;;;;;;;33.22;22.65;;;12.40;91.90;;;;;;4593195;19;20850;-30
2023/04/06 05:07:49;;;;;;;31.43;22.23;;;12.40;91.80;;;;;;4593513;19;20010;-30
2023/04/06 05:09:20;;;;;;;35.10;25.10;;;12.40;91.90;;;;;;4593595;19;20420;-29
2023/04/06 05:10:52;;;;;;;36.22;25.20;;;12.40;91.90;;;;;;4593585;19;20480;-29
2023/04/06 05:12:23;;;;;;;44.20;27.95;;;12.40;91.80;;;;;;4593126;19;20034;-29
2023/04/06 05:13:55;;;;;;;52.92;33.15;;;12.40;91.90;;;;;;4592211;19;20020;-29
2023/04/06 05:15:26;;;;;;;;;;;12.40;91.90;;;;;;4593165;19;20357;-30
2023/04/06 05:16:57;;;;;;;52.73;33.50;;;12.40;92.10;;;;;;4593042;19;19945;-29
2023/04/06 05:18:29;;;;;;;45.83;31.02;;;12.40;91.80;;;;;;4592790;19;20484;-29
2023/04/06 05:20:00;;;;;;;44.13;28.77;;;12.40;91.80;;;;;;4592252;19;20070;-28
2023/04/06 05:21:31;;;;;;;38.10;28.17;;;12.40;91.80;;;;;;4592184;19;20018;-30
2023/04/06 05:23:03;;;;;;;43.95;27.67;;;12.40;91.90;;;;;;4591600;19;20003;-30
2023/04/06 05:24:35;;;;;;;138.63;93.73;;;12.40;91.80;;;;;;4593091;19;20007;-29
2023/04/06 05:26:06;;;;;;;228.02;153.23;;;12.40;91.90;;;;;;4593431;19;20445;-29
2023/04/06 05:27:37;;;;;;;244.63;168.20;;;12.40;91.90;;;;;;4592071;19;20014;-30
2023/04/06 05:29:08;;;;;;;199.43;134.05;;;12.40;91.90;;;;;;4591442;19;20010;-30
2023/04/06 05:30:40;;;;;;;186.20;134.23;;;12.40;91.90;;;;;;4593867;19;20015;-30
2023/04/06 05:32:11;;;;;;;;;;;12.40;91.80;;;;;;4592333;19;20405;-30
2023/04/06 05:33:43;;;;;;;151.67;105.33;;;12.40;92.00;;;;;;4592543;19;19919;-29
2023/04/06 05:35:17;;;;;;;132.13;95.73;;;12.40;91.70;;;;;;4591876;19;20014;-30
2023/04/06 05:36:48;;;;;;;112.53;81.03;;;12.40;91.80;;;;;;4591673;19;20492;-29
2023/04/06 05:38:20;;;;;;;110.45;74.88;;;12.40;91.90;;;;;;4592297;19;20424;-29
2023/04/06 05:39:51;;;;;;;;;;;12.40;91.90;;;;;;4593467;19;20013;-30
2023/04/06 05:41:23;;;;;;;70.32;47.45;;;12.40;92.00;;;;;;4592677;19;19922;-30
2023/04/06 05:42:57;;;;;;;51.47;36.50;;;12.40;91.90;;;;;;4591425;19;20018;-30
2023/04/06 05:44:28;;;;;;;60.53;41.60;;;12.50;91.90;;;;;;4591885;19;20014;-30
2023/04/06 05:46:00;;;;;;;57.05;37.92;;;12.60;91.70;;;;;;4592423;19;21060;-30
2023/04/06 05:47:32;;;;;;;59.67;42.10;;;12.60;91.70;;;;;;4588174;19;20385;-30
2023/04/06 05:49:05;;;;;;;47.83;31.53;;;12.60;91.80;;;;;;4591099;19;20433;-30
2023/04/06 05:50:38;;;;;;;44.07;29.27;;;12.70;91.90;;;;;;4592695;19;20480;-30
2023/04/06 05:52:10;;;;;;;37.03;25.80;;;12.70;91.70;;;;;;4591230;19;20579;-30
2023/04/06 05:53:41;;;;;;;35.75;26.17;;;12.70;91.60;;;;;;4592372;19;20472;-30
2023/04/06 05:55:13;;;;;;;37.13;25.30;;;12.70;91.70;;;;;;4592083;19;20041;-30
2023/04/06 05:56:44;;;;;;;36.55;24.42;;;12.80;91.70;;;;;;4591295;19;20445;-30
2023/04/06 05:58:17;;;;;;;37.53;24.00;;;12.80;91.50;;;;;;4590934;19;20015;-30
2023/04/06 05:59:49;;;;;;;32.87;23.73;;;12.80;91.40;;;;;;4591960;19;20011;-30
2023/04/06 06:01:20;;;;;;;34.22;23.48;;;12.80;91.20;;;;;;4590974;19;20437;-30
2023/04/06 06:02:51;;;;;;;36.40;22.95;;;12.80;91.30;;;;;;4592148;19;20018;-30
2023/04/06 06:04:23;;;;;;;;;;;12.80;91.30;;;;;;4593049;19;20014;-30
2023/04/06 06:05:58;;;;;;;33.37;21.10;;;12.80;91.40;;;;;;4592508;19;19966;-30
2023/04/06 06:07:31;;;;;;;38.23;22.80;;;12.80;91.10;;;;;;4590709;19;20007;-30
2023/04/06 06:09:03;;;;;;;35.70;24.42;;;12.70;91.10;;;;;;4591957;19;20822;-30
2023/04/06 06:10:34;;;;;;;;;;;12.70;91.10;;;;;;4592859;19;20097;-30
2023/04/06 06:12:05;;;;;;;37.03;25.50;;;12.70;91.20;;;;;;4591050;19;19918;-30
2023/04/06 06:13:37;;;;;;;40.08;27.08;;;12.70;90.70;;;;;;4592318;19;20582;-30
2023/04/06 06:15:08;;;;;;;30.77;21.88;;;12.70;90.90;;;;;;4591798;19;20013;-29
2023/04/06 06:16:41;;;;;;;35.83;27.07;;;12.60;90.80;;;;;;4591509;19;20007;-30
2023/04/06 06:18:12;;;;;;;38.10;25.92;;;12.60;90.80;;;;;;4590758;19;20449;-30
2023/04/06 06:19:45;;;;;;;45.07;29.67;;;12.70;91.20;;;;;;4590987;19;20025;-30
2023/04/06 06:21:16;;;;;;;43.10;29.70;;;12.70;91.10;;;;;;4591133;19;20803;-30
2023/04/06 06:22:48;;;;;;;40.87;28.90;;;12.70;90.80;;;;;;4589833;19;20018;-30
2023/04/06 06:24:21;;;;;;;45.30;32.77;;;12.60;90.50;;;;;;4591555;19;21056;-30
2023/04/06 06:25:52;;;;;;;46.90;34.22;;;12.60;90.50;;;;;;4592384;19;20472;-30
2023/04/06 06:27:23;;;;;;;44.67;33.35;;;12.50;90.40;;;;;;4591605;19;20010;-30
2023/04/06 06:28:55;;;;;;;51.72;37.47;;;12.60;91.20;;;;;;4591961;19;20014;-30
2023/04/06 06:30:27;;;;;;;57.90;47.20;;;12.70;91.00;;;;;;4591675;19;20006;-30
2023/04/06 06:31:59;;;;;;;47.60;34.87;;;12.60;90.90;;;;;;4589439;19;20429;-30
2023/04/06 06:33:30;;;;;;;46.88;34.53;;;12.60;90.80;;;;;;4591192;19;20449;-30
2023/04/06 06:35:02;;;;;;;45.17;29.98;;;12.50;90.90;;;;;;4590554;19;20441;-30
2023/04/06 06:36:35;;;;;;;43.23;30.23;;;12.50;91.00;;;;;;4590219;19;20019;-30
2023/04/06 06:38:07;;;;;;;46.60;34.20;;;12.40;91.30;;;;;;4590357;19;21012;-30
2023/04/06 06:39:39;;;;;;;;;;;12.40;91.10;;;;;;4591243;19;20445;-30
2023/04/06 06:41:10;;;;;;;40.53;24.03;;;12.40;91.20;;;;;;4591086;19;19926;-30
2023/04/06 06:42:41;;;;;;;27.40;17.80;;;12.40;91.30;;;;;;4591438;19;20559;-30
2023/04/06 06:44:12;;;;;;;24.52;16.25;;;12.40;91.20;;;;;;4590990;19;20018;-30
2023/04/06 06:45:44;;;;;;;25.23;15.43;;;12.30;90.90;;;;;;4589976;19;20006;-30
2023/04/06 06:47:18;;;;;;;23.13;14.50;;;12.30;90.70;;;;;;4590696;19;20028;-30
2023/04/06 06:48:50;;;;;;;23.43;15.50;;;12.30;90.60;;;;;;4591466;19;20536;-30
2023/04/06 06:50:23;;;;;;;25.00;17.20;;;12.40;90.70;;;;;;4589876;19;20481;-30
2023/04/06 06:51:54;;;;;;;24.02;14.50;;;12.30;90.90;;;;;;4588979;19;20441;-30
2023/04/06 06:53:25;;;;;;;25.45;14.90;;;12.30;90.60;;;;;;4592698;19;20031;-30
2023/04/06 06:54:57;;;;;;;30.10;17.45;;;12.30;90.70;;;;;;4590965;19;20011;-30
2023/04/06 06:56:28;;;;;;;25.92;17.95;;;12.40;91.10;;;;;;4590733;19;20014;-30
2023/04/06 06:57:59;;;;;;;21.60;16.58;;;12.40;90.90;;;;;;4590190;19;20007;-30
2023/04/06 06:59:31;;;;;;;22.42;16.58;;;12.30;90.90;;;;;;4589373;19;20053;-30
2023/04/06 07:01:04;;;;;;;22.77;14.63;;;12.40;90.90;;;;;;4590079;19;20006;-30
2023/04/06 07:02:36;;;;;;;33.23;19.40;;;12.30;90.70;;;;;;4589210;19;20460;-30
2023/04/06 07:04:08;;;;;;;45.60;26.17;;;12.30;90.80;;;;;;4590750;19;20441;-30
2023/04/06 07:05:49;;;;;;;50.67;26.13;;;12.30;90.80;;;;;;4591326;19;20006;-30
2023/04/06 07:07:20;;;;;;;49.10;27.23;;;12.30;91.00;;;;;;4590995;19;20480;-30
2023/04/06 07:08:52;;;;;;;40.53;22.08;;;12.40;91.10;;;;;;4590390;19;20480;-30
2023/04/06 07:10:23;;;;;;;20.52;14.50;;;12.40;90.90;;;;;;4590750;19;20011;-30
2023/04/06 07:11:56;;;;;;;19.23;12.17;;;12.40;90.70;;;;;;4589238;19;20025;-30
2023/04/06 07:13:27;;;;;;;;;;;12.40;90.70;;;;;;4593892;19;20460;-30
2023/04/06 07:14:59;;;;;;;23.83;13.85;;;12.30;90.40;;;;;;4591186;19;20009;-30
2023/04/06 07:16:31;;;;;;;16.53;10.40;;;12.30;89.70;;;;;;4589475;19;20053;-30
2023/04/06 07:18:03;;;;;;;15.38;10.13;;;12.30;89.60;;;;;;4590808;19;20421;-30
2023/04/06 07:19:34;;;;;;;14.88;10.07;;;12.30;90.10;;;;;;4590460;19;20021;-30
2023/04/06 07:21:05;;;;;;;14.38;10.10;;;12.30;90.00;;;;;;4590694;19;20015;-30
2023/04/06 07:22:42;;;;;;;19.07;11.20;;;12.30;90.00;;;;;;4588373;19;20033;-30
2023/04/06 07:24:15;;;;;;;13.13;9.53;;;12.30;90.10;;;;;;4589584;19;21043;-30
2023/04/06 07:25:46;;;;;;;13.35;8.85;;;12.30;89.50;;;;;;4589141;19;20815;-30
2023/04/06 07:27:19;;;;;;;16.43;9.10;;;12.30;88.80;;;;;;4590033;19;20476;-30
2023/04/06 07:28:51;;;;;;;14.37;9.43;;;12.30;88.50;;;;;;4590803;19;20751;-31
2023/04/06 07:30:22;;;;;;;17.88;9.27;;;12.30;88.80;;;;;;4590632;19;20441;-30
2023/04/06 07:31:55;;;;;;;14.27;8.73;;;12.30;88.70;;;;;;4589025;19;20018;-30
2023/04/06 07:33:29;;;;;;;11.73;8.37;;;12.30;89.20;;;;;;4592524;19;21060;-30
2023/04/06 07:35:03;;;;;;;12.40;8.30;;;12.30;88.90;;;;;;4590114;19;20441;-30
2023/04/06 07:36:35;;;;;;;14.10;8.80;;;12.30;88.80;;;;;;4589882;19;20449;-29
2023/04/06 07:38:06;;;;;;;14.23;8.27;;;12.30;88.40;;;;;;4589811;19;20444;-30
2023/04/06 07:39:37;;;;;;;12.30;8.73;;;12.30;88.30;;;;;;4589691;19;20010;-31
2023/04/06 07:41:09;;;;;;;13.00;8.60;;;12.30;89.30;;;;;;4590772;19;20026;-31
2023/04/06 07:42:40;;;;;;;11.80;7.20;;;12.30;89.50;;;;;;4589800;19;20040;-30
2023/04/06 07:44:11;;;;;;;10.25;6.00;;;12.40;88.90;;;;;;4590155;19;20013;-30
2023/04/06 07:45:43;;;;;;;9.95;5.65;;;12.40;87.60;;;;;;4589975;19;20015;-30
2023/04/06 07:47:15;;;;;;;8.63;5.13;;;12.40;85.90;;;;;;4590743;19;20006;-30
2023/04/06 07:48:46;;;;;;;6.20;4.72;;;12.40;85.00;;;;;;4588554;19;20484;-30
2023/04/06 07:50:18;;;;;;;10.13;4.80;;;12.40;84.90;;;;;;4588827;19;20019;-30
2023/04/06 07:51:50;;;;;;;7.63;4.72;;;12.40;85.10;;;;;;4588704;19;21103;-30
2023/04/06 07:53:21;;;;;;;5.25;3.67;;;12.40;84.40;;;;;;4591933;19;20019;-30
2023/04/06 07:54:52;;;;;;;6.13;3.90;;;12.30;83.30;;;;;;4589659;19;20120;-30
2023/04/06 07:56:24;;;;;;;5.85;4.07;;;12.30;83.20;;;;;;4588892;19;20479;-30
2023/04/06 07:57:56;;;;;;;7.87;3.43;;;12.30;84.50;;;;;;4589478;19;19998;-30
2023/04/06 07:59:28;;;;;;;3.80;2.35;;;12.30;82.50;;;;;;4590455;19;20536;-30
2023/04/06 08:00:59;;;;;;;4.75;2.42;;;12.20;81.70;;;;;;4589524;19;20021;-30
2023/04/06 08:02:31;;;;;;;5.10;3.50;;;12.20;80.90;;;;;;4589638;19;20033;-30
2023/04/06 08:04:03;;;;;;;5.13;3.30;;;12.20;81.10;;;;;;4588245;19;20433;-30
2023/04/06 08:05:34;;;;;;;4.57;1.98;;;12.20;81.20;;;;;;4589131;19;20451;-30
2023/04/06 08:07:06;;;;;;;3.30;1.77;;;12.10;81.00;;;;;;4590262;19;20011;-30
2023/04/06 08:08:38;;;;;;;3.57;2.60;;;12.20;81.40;;;;;;4587126;19;20554;-30
2023/04/06 08:10:10;;;;;;;;;;;12.20;81.00;;;;;;4591581;19;20528;-30
2023/04/06 08:11:41;;;;;;;3.80;1.90;;;12.10;82.20;;;;;;4593664;19;19926;-30
2023/04/06 08:13:14;;;;;;;4.43;2.00;;;12.20;80.90;;;;;;4594528;19;20485;-30
2023/04/06 08:14:45;;;;;;;3.53;1.90;;;12.30;81.30;;;;;;4593772;19;20453;-30
2023/04/06 08:16:18;;;;;;;4.57;1.80;;;12.30;81.40;;;;;;4594167;19;20007;-30
2023/04/06 08:17:49;;;;;;;3.55;2.55;;;12.30;81.00;;;;;;4593385;19;21041;-30
2023/04/06 08:19:24;;;;;;;3.13;1.77;;;12.30;80.60;;;;;;4593801;19;20010;-30
2023/04/06 08:20:56;;;;;;;;;;;12.30;80.60;;;;;;4595742;19;20457;-30
2023/04/06 08:22:28;;;;;;;4.05;2.30;;;12.30;81.20;;;;;;4594545;19;19926;-30
2023/04/06 08:24:01;;;;;;;4.87;2.67;;;12.30;81.20;;;;;;4591230;19;20418;-30
2023/04/06 08:25:35;;;;;;;3.45;2.40;;;12.30;81.90;;;;;;4593197;19;20476;-30
2023/04/06 08:27:07;;;;;;;3.83;2.50;;;12.30;81.80;;;;;;4593223;19;20030;-30
2023/04/06 08:28:41;;;;;;;4.57;2.87;;;12.30;81.70;;;;;;4593182;19;20481;-30
2023/04/06 08:30:18;;;;;;;5.10;3.13;;;12.30;82.40;;;;;;4593829;19;20532;-30
2023/04/06 08:31:50;;;;;;;4.83;2.33;;;12.30;81.30;;;;;;4594146;19;20747;-30
2023/04/06 08:33:23;;;;;;;4.00;2.40;;;12.30;81.60;;;;;;4594691;19;20429;-30
2023/04/06 08:36:46;;;;;;;8.90;5.00;;;12.30;81.60;;;;;;4592834;19;21103;-31
2023/04/06 08:38:17;;;;;;;7.00;4.32;;;12.30;81.40;;;;;;4591522;19;20457;-30
2023/04/06 08:39:50;;;;;;;7.63;4.60;;;12.30;81.00;;;;;;4592596;19;20019;-30
2023/04/06 08:41:22;;;;;;;10.37;5.43;;;12.30;81.20;;;;;;4593675;19;20441;-30
2023/04/06 08:42:56;;;;;;;6.87;4.20;;;12.40;82.10;;;;;;4592040;19;20483;-30
2023/04/06 08:44:27;;;;;;;5.20;3.10;;;12.40;83.40;;;;;;4592494;19;20473;-30